Time;durP1;ratioP1;P1;durP2;ratioP2;P2;SDS_P1;SDS_P2;PMS_P1;PMS_P2;Temp;Humidity;BMP_temperature;BMP_pressure;BME280_temperature;BME280_humidity;BME280_pressure;Samples;Min_cycle;Max_cycle;Signal;HPM_P1;HPM_P2
2022/10/15 00:00:16;;;;;;;1.20;1.02;;;13.20;99.90;;;;;;8281818;28;20022;-83
2022/10/15 00:04:17;;;;;;;1.92;1.35;;;13.20;99.90;;;;;;8282173;28;20034;-84
2022/10/15 00:08:17;;;;;;;1.60;1.35;;;13.20;99.90;;;;;;8244130;28;20022;-84
2022/10/15 00:12:18;;;;;;;1.40;1.30;;;13.10;99.90;;;;;;8262918;28;20026;-83
2022/10/15 00:16:22;;;;;;;2.65;1.13;;;13.10;99.90;;;;;;8263717;28;20177;-83
2022/10/15 00:20:22;;;;;;;1.17;1.05;;;13.20;99.90;;;;;;8265534;28;20033;-84
2022/10/15 00:24:23;;;;;;;1.20;1.10;;;13.20;99.90;;;;;;8271294;28;20014;-84
2022/10/15 00:28:24;;;;;;;1.48;1.30;;;13.30;99.90;;;;;;8274765;28;20028;-85
2022/10/15 00:32:24;;;;;;;2.13;1.10;;;13.30;99.90;;;;;;8273296;28;20029;-83
2022/10/15 00:36:33;;;;;;;2.05;0.90;;;13.30;99.90;;;;;;8268500;28;20089;-85
2022/10/15 00:40:34;;;;;;;1.70;1.00;;;13.30;99.90;;;;;;8276425;28;20076;-84
2022/10/15 00:44:57;;;;;;;2.58;1.10;;;13.30;99.90;;;;;;8274928;28;20033;-83
2022/10/15 00:49:06;;;;;;;1.30;1.15;;;13.40;99.90;;;;;;8276544;28;20027;-83
2022/10/15 00:53:08;;;;;;;1.60;0.90;;;13.30;99.90;;;;;;8297916;28;20033;-84
2022/10/15 00:57:11;;;;;;;0.85;0.70;;;13.30;99.90;;;;;;8291582;28;20064;-83
2022/10/15 01:01:11;;;;;;;1.15;0.70;;;13.40;99.90;;;;;;8280525;28;20029;-81
2022/10/15 01:05:14;;;;;;;1.85;0.73;;;13.50;99.90;;;;;;8274025;28;20030;-83
2022/10/15 01:09:15;;;;;;;0.63;0.63;;;13.50;99.90;;;;;;8269798;28;20026;-83
2022/10/15 01:13:35;;;;;;;0.60;0.55;;;13.40;99.90;;;;;;8291442;28;20022;-82
2022/10/15 01:17:49;;;;;;;0.93;0.80;;;13.40;99.90;;;;;;8272402;28;20038;-84
2022/10/15 01:21:59;;;;;;;0.93;0.70;;;13.40;99.90;;;;;;8281022;28;20030;-83
2022/10/15 01:26:13;;;;;;;2.55;0.68;;;13.50;99.90;;;;;;8267330;28;20052;-84
2022/10/15 01:30:19;;;;;;;1.75;0.90;;;13.50;99.90;;;;;;8276588;28;20029;-82
2022/10/15 01:34:30;;;;;;;0.98;0.68;;;13.40;99.90;;;;;;8261285;28;20034;-84
2022/10/15 01:38:55;;;;;;;1.33;0.95;;;13.40;99.90;;;;;;8266185;28;20034;-82
2022/10/15 01:42:58;;;;;;;0.75;0.70;;;13.40;99.90;;;;;;8271539;28;20022;-83
2022/10/15 01:47:05;;;;;;;0.73;0.73;;;13.60;99.90;;;;;;8269402;28;20027;-83
2022/10/15 01:51:09;;;;;;;0.80;0.68;;;13.50;99.90;;;;;;8276527;28;20018;-85
2022/10/15 01:55:13;;;;;;;1.40;0.60;;;13.60;99.90;;;;;;8272494;28;20426;-84
2022/10/15 01:59:14;;;;;;;0.70;0.65;;;13.50;99.90;;;;;;8264029;28;20165;-84
2022/10/15 02:03:15;;;;;;;0.77;0.70;;;13.50;99.90;;;;;;8268546;28;20506;-84
2022/10/15 02:07:32;;;;;;;1.23;0.90;;;13.50;99.90;;;;;;8273338;28;20022;-83
2022/10/15 02:11:53;;;;;;;1.35;0.77;;;13.50;99.90;;;;;;8281432;28;20035;-83
2022/10/15 02:16:06;;;;;;;3.45;1.00;;;13.60;99.90;;;;;;8259678;28;20546;-84
2022/10/15 02:20:26;;;;;;;0.70;0.70;;;13.60;99.90;;;;;;8287695;28;20573;-83
2022/10/15 02:24:34;;;;;;;1.23;0.90;;;13.60;99.90;;;;;;8269288;28;20010;-83
2022/10/15 02:28:37;;;;;;;0.85;0.70;;;13.60;99.90;;;;;;8267797;28;20494;-83
2022/10/15 02:32:39;;;;;;;1.30;1.10;;;13.60;99.90;;;;;;8285009;28;20022;-83
2022/10/15 02:36:40;;;;;;;1.00;0.90;;;13.60;99.90;;;;;;8268929;28;20030;-83
2022/10/15 02:40:42;;;;;;;1.33;1.00;;;13.70;99.90;;;;;;8263305;28;20045;-82
2022/10/15 02:44:43;;;;;;;0.95;0.82;;;13.60;99.90;;;;;;8265947;28;20402;-83
2022/10/15 02:48:44;;;;;;;1.10;0.98;;;13.60;99.90;;;;;;8286616;28;20026;-83
2022/10/15 02:52:44;;;;;;;2.88;0.85;;;13.70;99.90;;;;;;8272557;28;20023;-82
2022/10/15 02:56:45;;;;;;;1.67;1.00;;;13.80;99.90;;;;;;8270436;28;20038;-83
2022/10/15 03:00:45;;;;;;;1.52;0.60;;;13.80;99.90;;;;;;8283492;28;20041;-83
2022/10/15 03:04:46;;;;;;;1.20;0.77;;;13.70;99.90;;;;;;8278032;28;20509;-83
2022/10/15 03:08:47;;;;;;;0.80;0.70;;;13.70;99.90;;;;;;8266745;28;20033;-82
2022/10/15 03:12:47;;;;;;;1.05;0.73;;;13.80;99.90;;;;;;8265137;28;20506;-82
2022/10/15 03:16:48;;;;;;;1.02;0.70;;;13.70;99.90;;;;;;8263382;28;20026;-83
2022/10/15 03:20:56;;;;;;;2.45;1.02;;;13.70;99.90;;;;;;8280961;28;20034;-82
2022/10/15 03:24:56;;;;;;;2.35;1.00;;;13.80;99.90;;;;;;8270658;28;20033;-81
2022/10/15 03:28:57;;;;;;;5.38;1.10;;;13.80;99.90;;;;;;8285287;28;20531;-82
2022/10/15 03:32:57;;;;;;;1.63;1.27;;;13.90;99.90;;;;;;8268394;28;20022;-82
2022/10/15 03:36:58;;;;;;;1.75;1.48;;;13.80;99.90;;;;;;8262263;28;20047;-82
2022/10/15 03:40:59;;;;;;;1.27;1.17;;;13.80;99.90;;;;;;8282385;28;20073;-81
2022/10/15 03:44:59;;;;;;;5.75;1.50;;;13.80;99.90;;;;;;8289865;28;20030;-82
2022/10/15 03:49:00;;;;;;;2.03;1.50;;;13.90;99.90;;;;;;8264613;28;20034;-82
2022/10/15 03:53:04;;;;;;;1.48;1.27;;;13.80;99.90;;;;;;8269448;28;20437;-82
2022/10/15 03:57:05;;;;;;;2.25;0.95;;;14.00;99.90;;;;;;8268698;28;20027;-82
2022/10/15 04:01:11;;;;;;;2.85;1.00;;;14.10;99.90;;;;;;8281135;28;20512;-83
2022/10/15 04:05:11;;;;;;;1.50;0.95;;;14.00;99.90;;;;;;8276062;28;20093;-83
2022/10/15 04:09:13;;;;;;;4.53;0.90;;;14.10;99.90;;;;;;8293144;28;20026;-83
2022/10/15 04:13:13;;;;;;;2.10;0.90;;;14.10;99.90;;;;;;8288398;28;20029;-82
2022/10/15 04:17:15;;;;;;;1.98;0.98;;;14.10;99.90;;;;;;8274735;28;20030;-82
2022/10/15 04:21:15;;;;;;;1.33;0.80;;;14.10;99.90;;;;;;8271057;28;20026;-82
2022/10/15 04:25:16;;;;;;;2.08;0.88;;;14.20;99.90;;;;;;8273225;28;20014;-81
2022/10/15 04:29:16;;;;;;;0.95;0.80;;;14.10;99.90;;;;;;8284833;28;20133;-82
2022/10/15 04:33:17;;;;;;;0.88;0.80;;;14.10;99.90;;;;;;8268399;28;20030;-82
2022/10/15 04:37:18;;;;;;;1.67;0.80;;;14.10;99.90;;;;;;8274208;28;20014;-83
2022/10/15 04:41:18;;;;;;;2.22;0.88;;;14.10;99.90;;;;;;8274734;28;20022;-83
2022/10/15 04:45:19;;;;;;;1.73;1.00;;;14.20;99.90;;;;;;8267395;28;20485;-83
2022/10/15 04:49:19;;;;;;;2.25;0.77;;;14.10;99.90;;;;;;8264532;28;20022;-82
2022/10/15 04:53:20;;;;;;;0.82;0.82;;;14.10;99.90;;;;;;8288935;28;20053;-83
2022/10/15 04:57:21;;;;;;;2.75;0.98;;;14.10;99.90;;;;;;8279281;28;20493;-83
2022/10/15 05:01:22;;;;;;;1.27;0.90;;;14.20;99.90;;;;;;8266658;28;20088;-83
2022/10/15 05:05:22;;;;;;;2.50;0.90;;;14.10;99.90;;;;;;8276543;28;20034;-82
2022/10/15 05:09:23;;;;;;;1.50;1.00;;;14.10;99.90;;;;;;8266429;28;20026;-83
2022/10/15 05:13:23;;;;;;;1.58;1.00;;;14.10;99.90;;;;;;8288422;28;20370;-82
2022/10/15 05:17:24;;;;;;;1.00;0.90;;;14.10;99.90;;;;;;8280284;28;20527;-83
2022/10/15 05:21:25;;;;;;;1.98;1.23;;;14.20;99.90;;;;;;8266587;28;20025;-82
2022/10/15 05:25:26;;;;;;;1.13;0.90;;;14.20;99.90;;;;;;8285260;28;20033;-82
2022/10/15 05:29:26;;;;;;;5.60;0.80;;;14.10;99.90;;;;;;8272037;28;20094;-82
2022/10/15 05:33:27;;;;;;;1.13;0.75;;;14.10;99.90;;;;;;8269763;28;20147;-83
2022/10/15 05:37:27;;;;;;;0.95;0.85;;;14.10;99.90;;;;;;8263220;28;20080;-83
2022/10/15 05:41:29;;;;;;;0.80;0.60;;;14.00;99.90;;;;;;8269355;28;20034;-82
2022/10/15 05:45:29;;;;;;;3.30;0.90;;;14.20;99.90;;;;;;8281041;28;20034;-82
2022/10/15 05:49:30;;;;;;;0.93;0.90;;;14.20;99.90;;;;;;8272870;28;20061;-82
2022/10/15 05:53:31;;;;;;;1.15;0.70;;;14.10;99.90;;;;;;8281075;28;20027;-83
2022/10/15 05:57:31;;;;;;;1.30;0.90;;;14.00;99.90;;;;;;8256558;28;20038;-82
2022/10/15 06:01:32;;;;;;;3.83;1.10;;;14.20;99.90;;;;;;8253618;28;20030;-82
2022/10/15 06:05:32;;;;;;;0.88;0.80;;;14.30;99.90;;;;;;8268979;28;20401;-82
2022/10/15 06:09:33;;;;;;;1.10;0.95;;;14.20;99.90;;;;;;8265759;28;20037;-82
2022/10/15 06:13:34;;;;;;;1.70;0.70;;;14.20;99.90;;;;;;8268905;28;20117;-83
2022/10/15 06:17:34;;;;;;;0.65;0.65;;;14.20;99.90;;;;;;8279115;28;20130;-82
2022/10/15 06:21:35;;;;;;;1.58;0.65;;;14.30;99.90;;;;;;8269176;28;20430;-82
2022/10/15 06:25:35;;;;;;;0.93;0.50;;;14.30;99.90;;;;;;8284299;28;20088;-82
2022/10/15 06:29:36;;;;;;;2.30;0.60;;;14.40;99.90;;;;;;8264894;28;20080;-82
2022/10/15 06:33:37;;;;;;;0.77;0.60;;;14.20;99.90;;;;;;8285377;28;20030;-81
2022/10/15 06:37:37;;;;;;;0.60;0.60;;;14.20;99.90;;;;;;8260421;28;20026;-83
2022/10/15 06:41:38;;;;;;;0.55;0.50;;;14.30;99.90;;;;;;8261400;28;20450;-83
2022/10/15 06:45:41;;;;;;;0.52;0.50;;;14.30;99.90;;;;;;8278977;28;20026;-80
2022/10/15 06:49:41;;;;;;;0.50;0.50;;;14.50;99.90;;;;;;8272851;28;20446;-81
2022/10/15 06:53:42;;;;;;;0.55;0.55;;;14.40;99.90;;;;;;8293628;28;20038;-81
2022/10/15 06:57:43;;;;;;;0.47;0.40;;;14.50;99.90;;;;;;8281010;28;20026;-80
2022/10/15 07:01:43;;;;;;;1.42;0.35;;;14.50;99.90;;;;;;8283667;28;20030;-81
2022/10/15 07:05:44;;;;;;;0.50;0.45;;;14.50;99.90;;;;;;8276546;28;20031;-81
2022/10/15 07:09:46;;;;;;;0.60;0.50;;;14.50;99.90;;;;;;8277972;28;20057;-82
2022/10/15 07:13:46;;;;;;;0.73;0.65;;;14.50;99.90;;;;;;8281170;28;20089;-82
2022/10/15 07:17:48;;;;;;;0.40;0.40;;;14.70;99.90;;;;;;8292849;28;20041;-82
2022/10/15 07:21:52;;;;;;;0.52;0.40;;;14.70;99.90;;;;;;8258658;28;20125;-87
2022/10/15 07:25:59;;;;;;;0.40;0.40;;;14.60;99.90;;;;;;8243157;28;20037;-86
2022/10/15 07:30:00;;;;;;;0.47;0.47;;;14.50;99.90;;;;;;8268872;28;20081;-88
2022/10/15 07:34:01;;;;;;;0.65;0.40;;;14.60;99.90;;;;;;8256432;28;20069;-86
2022/10/15 07:38:02;;;;;;;2.17;0.60;;;14.60;99.90;;;;;;8254643;28;20057;-87
2022/10/15 07:42:02;;;;;;;0.32;0.32;;;14.70;99.90;;;;;;8261603;28;20474;-87
2022/10/15 07:46:04;;;;;;;1.25;0.40;;;14.70;99.90;;;;;;8265283;28;20040;-88
2022/10/15 07:50:23;;;;;;;0.32;0.32;;;14.80;99.90;;;;;;8272817;28;20029;-88
2022/10/15 07:54:24;;;;;;;0.65;0.50;;;14.60;99.90;;;;;;8273825;28;20024;-84
2022/10/15 07:58:25;;;;;;;1.00;0.70;;;14.70;99.90;;;;;;8266116;28;20025;-83
2022/10/15 08:02:25;;;;;;;2.20;0.68;;;15.00;99.90;;;;;;8291087;28;20021;-85
2022/10/15 08:06:26;;;;;;;1.25;1.05;;;15.00;99.90;;;;;;8280870;28;20026;-84
2022/10/15 08:10:27;;;;;;;1.90;0.90;;;15.00;99.90;;;;;;8292904;28;20021;-83
2022/10/15 08:14:28;;;;;;;1.23;0.60;;;15.00;99.90;;;;;;8269079;28;20044;-83
2022/10/15 08:18:28;;;;;;;0.70;0.70;;;15.10;99.90;;;;;;8276332;28;20026;-83
2022/10/15 08:22:29;;;;;;;1.67;0.88;;;15.30;99.90;;;;;;8276581;28;20030;-83
2022/10/15 08:26:29;;;;;;;3.50;0.88;;;15.40;99.90;;;;;;8269925;28;20050;-83
2022/10/15 08:30:30;;;;;;;2.75;1.00;;;15.60;99.90;;;;;;8270313;28;20242;-82
2022/10/15 08:34:30;;;;;;;1.35;0.90;;;15.60;99.90;;;;;;8261111;28;20026;-81
2022/10/15 08:38:31;;;;;;;0.88;0.68;;;15.70;99.90;;;;;;8261424;28;20056;-81
2022/10/15 08:42:39;;;;;;;1.15;0.77;;;16.00;99.90;;;;;;8274820;28;20034;-82
2022/10/15 08:46:45;;;;;;;2.90;0.98;;;16.30;99.90;;;;;;8270474;28;20041;-82
2022/10/15 08:50:58;;;;;;;2.25;0.77;;;16.40;99.90;;;;;;8281688;28;20033;-82
2022/10/15 08:55:00;;;;;;;2.42;0.98;;;16.30;99.90;;;;;;8274776;28;20026;-82
2022/10/15 08:59:17;;;;;;;1.90;0.80;;;16.30;99.90;;;;;;8280407;28;20541;-82
2022/10/15 09:03:30;;;;;;;3.85;0.80;;;16.40;99.90;;;;;;8281705;28;20026;-82
2022/10/15 09:08:02;;;;;;;0.80;0.63;;;16.20;99.90;;;;;;8270288;28;20102;-81
2022/10/15 09:12:29;;;;;;;1.50;0.63;;;16.50;99.90;;;;;;8261116;28;20033;-81
2022/10/15 09:16:36;;;;;;;1.27;0.65;;;16.70;99.90;;;;;;8269637;28;20429;-82
2022/10/15 09:20:37;;;;;;;3.03;0.50;;;16.80;99.90;;;;;;8279549;28;20035;-81
2022/10/15 09:24:38;;;;;;;2.40;0.57;;;17.00;99.90;;;;;;8262080;28;20138;-82
2022/10/15 09:28:54;;;;;;;1.60;0.60;;;17.10;99.90;;;;;;8261876;28;20022;-82
2022/10/15 09:33:04;;;;;;;1.35;0.70;;;17.40;99.90;;;;;;8277314;28;20049;-83
2022/10/15 09:37:17;;;;;;;0.83;0.50;;;17.90;99.90;;;;;;8283905;28;20375;-82
2022/10/15 09:41:48;;;;;;;1.02;0.50;;;17.90;99.90;;;;;;8268976;28;20055;-83
2022/10/15 09:45:48;;;;;;;1.90;0.60;;;17.60;99.90;;;;;;8279652;28;20029;-83
2022/10/15 09:49:49;;;;;;;1.52;0.70;;;17.50;99.90;;;;;;8279456;28;20026;-81
2022/10/15 09:54:11;;;;;;;1.80;0.60;;;17.30;99.90;;;;;;8277316;28;20026;-83
2022/10/15 09:58:17;;;;;;;1.70;0.70;;;17.40;99.90;;;;;;8277806;28;20025;-84
2022/10/15 10:02:19;;;;;;;1.23;0.70;;;17.30;99.90;;;;;;8276989;28;20034;-84
2022/10/15 10:06:23;;;;;;;0.90;0.70;;;17.20;99.90;;;;;;8273917;28;20030;-83
2022/10/15 10:10:29;;;;;;;4.22;0.63;;;17.40;99.90;;;;;;8267747;28;20105;-83
2022/10/15 10:14:34;;;;;;;1.35;0.60;;;17.40;99.90;;;;;;8288993;28;20017;-84
2022/10/15 10:18:36;;;;;;;1.00;0.75;;;17.60;99.90;;;;;;8282531;28;20023;-84
2022/10/15 10:22:55;;;;;;;3.13;0.80;;;17.70;99.90;;;;;;8270193;28;20629;-84
2022/10/15 10:27:01;;;;;;;0.63;0.63;;;17.90;99.90;;;;;;8298659;28;20026;-84
2022/10/15 10:31:06;;;;;;;1.63;0.70;;;18.00;99.90;;;;;;8274649;28;20029;-85
2022/10/15 10:35:20;;;;;;;1.58;0.70;;;17.70;99.90;;;;;;8280807;28;20052;-84
2022/10/15 10:39:25;;;;;;;5.05;1.00;;;17.90;99.90;;;;;;8256976;28;20640;-85
2022/10/15 10:43:28;;;;;;;0.95;0.57;;;18.30;99.90;;;;;;8260286;28;20026;-84
2022/10/15 10:47:37;;;;;;;2.25;0.60;;;18.50;99.90;;;;;;8268468;28;20117;-84
2022/10/15 10:51:48;;;;;;;2.90;0.80;;;18.90;99.90;;;;;;8268313;28;20465;-84
2022/10/15 10:55:51;;;;;;;3.92;0.90;;;19.10;99.90;;;;;;8276047;28;20027;-83
2022/10/15 10:59:53;;;;;;;4.60;1.10;;;19.60;99.90;;;;;;8270002;28;20068;-82
2022/10/15 11:03:54;;;;;;;6.50;3.10;;;19.60;99.90;;;;;;8277839;28;20410;-83
2022/10/15 11:08:32;;;;;;;1.92;0.73;;;19.40;99.90;;;;;;8263103;28;20068;-83
2022/10/15 11:13:08;;;;;;;1.38;0.68;;;19.20;99.90;;;;;;8261352;28;20054;-84
2022/10/15 11:17:33;;;;;;;1.40;0.70;;;19.80;99.90;;;;;;8278940;28;20025;-85
2022/10/15 11:22:00;;;;;;;3.10;0.70;;;20.50;99.90;;;;;;8270290;28;20117;-84
2022/10/15 11:26:26;;;;;;;1.02;0.65;;;20.80;99.90;;;;;;8271196;28;20034;-83
2022/10/15 11:30:58;;;;;;;1.90;0.60;;;21.20;99.90;;;;;;8285667;28;20030;-84
2022/10/15 11:35:20;;;;;;;2.03;0.60;;;21.10;99.90;;;;;;8273910;28;20494;-83
2022/10/15 11:39:50;;;;;;;0.77;0.55;;;21.50;99.90;;;;;;8282627;28;20050;-84
2022/10/15 11:44:12;;;;;;;0.77;0.50;;;22.30;99.90;;;;;;8275066;28;20289;-84
2022/10/15 11:48:24;;;;;;;4.18;0.75;;;21.00;99.90;;;;;;8259470;28;20053;-84
2022/10/15 11:52:36;;;;;;;0.65;0.50;;;20.10;99.90;;;;;;8272595;28;20014;-84
2022/10/15 11:56:46;;;;;;;3.15;0.70;;;19.60;99.90;;;;;;8272279;28;20030;-85
2022/10/15 12:00:52;;;;;;;1.33;0.40;;;19.10;99.90;;;;;;8258299;28;20121;-84
2022/10/15 12:04:57;;;;;;;1.98;0.57;;;19.10;99.90;;;;;;8275573;28;20612;-84
2022/10/15 12:09:00;;;;;;;1.05;0.50;;;19.00;99.90;;;;;;8285001;28;20393;-84
2022/10/15 12:13:27;;;;;;;3.00;1.42;;;19.00;99.90;;;;;;8279907;28;20056;-85
2022/10/15 12:17:45;;;;;;;1.05;0.63;;;19.00;99.90;;;;;;8281355;28;20026;-85
2022/10/15 12:21:48;;;;;;;2.30;0.90;;;19.10;99.90;;;;;;8284233;28;20506;-84
2022/10/15 12:25:49;;;;;;;1.20;0.70;;;19.10;99.90;;;;;;8283365;28;20066;-85
2022/10/15 12:30:10;;;;;;;1.73;0.73;;;19.40;99.90;;;;;;8278484;28;20401;-84
2022/10/15 12:34:27;;;;;;;1.70;0.77;;;19.40;99.90;;;;;;8267555;28;20380;-84
2022/10/15 12:38:35;;;;;;;2.38;0.80;;;19.50;99.90;;;;;;8258202;28;20513;-84
2022/10/15 12:42:38;;;;;;;3.90;0.80;;;19.60;99.90;;;;;;8260454;28;20034;-84
2022/10/15 12:46:39;;;;;;;2.08;0.70;;;19.70;99.90;;;;;;8272332;28;20087;-85
2022/10/15 12:50:40;;;;;;;0.90;0.60;;;20.40;99.90;;;;;;8270955;28;20109;-85
2022/10/15 12:54:45;;;;;;;0.80;0.80;;;20.50;99.90;;;;;;8267414;28;20394;-84
2022/10/15 12:58:48;;;;;;;1.83;1.15;;;20.20;99.90;;;;;;8283019;28;20038;-84
2022/10/15 13:02:49;;;;;;;2.30;0.80;;;19.70;99.90;;;;;;8279552;28;20117;-84
2022/10/15 13:06:50;;;;;;;2.97;0.73;;;19.50;99.90;;;;;;8272000;28;20033;-84
2022/10/15 13:10:54;;;;;;;1.23;0.68;;;19.70;99.90;;;;;;8283041;28;20022;-84
2022/10/15 13:15:04;;;;;;;3.53;0.70;;;19.90;99.90;;;;;;8266077;28;20482;-83
2022/10/15 13:19:05;;;;;;;0.93;0.68;;;20.40;99.90;;;;;;8271408;28;20113;-85
2022/10/15 13:23:33;;;;;;;2.75;0.70;;;19.90;99.90;;;;;;8276206;28;20030;-82
2022/10/15 13:27:36;;;;;;;1.88;0.70;;;19.40;99.90;;;;;;8254795;28;20029;-84
2022/10/15 13:31:39;;;;;;;4.90;0.80;;;19.40;99.90;;;;;;8265809;28;20022;-84
2022/10/15 13:35:39;;;;;;;3.63;1.05;;;19.60;99.90;;;;;;8264842;28;20611;-84
2022/10/15 13:43:29;;;;;;;;;;;20.50;99.90;;;;;;8481933;27;20407;-83
2022/10/15 13:47:35;;;;;;;1.00;0.83;;;20.40;99.90;;;;;;8416491;28;19915;-81
2022/10/15 13:51:42;;;;;;;1.63;0.90;;;20.20;99.90;;;;;;8408670;28;20255;-82
2022/10/15 13:55:46;;;;;;;0.98;0.75;;;20.70;99.90;;;;;;8424543;28;20124;-82
2022/10/15 13:59:46;;;;;;;1.83;1.00;;;22.10;99.90;;;;;;8429194;28;20225;-82
2022/10/15 14:03:48;;;;;;;0.90;0.80;;;21.60;99.90;;;;;;8426315;28;20070;-82
2022/10/15 14:07:53;;;;;;;1.40;0.90;;;21.70;99.90;;;;;;8420165;28;20529;-82
2022/10/15 14:11:55;;;;;;;2.08;0.80;;;22.30;99.90;;;;;;8414227;28;20032;-83
2022/10/15 14:16:17;;;;;;;2.33;1.00;;;22.50;99.90;;;;;;8418230;28;20406;-84
2022/10/15 14:20:19;;;;;;;3.78;1.02;;;22.00;99.90;;;;;;8406361;28;20036;-84
2022/10/15 14:24:23;;;;;;;1.27;0.80;;;21.40;99.90;;;;;;8425802;28;20021;-84
2022/10/15 14:28:30;;;;;;;2.83;0.88;;;21.20;99.90;;;;;;8412418;28;20024;-83
2022/10/15 14:32:44;;;;;;;3.45;0.80;;;20.80;99.90;;;;;;8403745;28;20487;-83
2022/10/15 14:36:45;;;;;;;1.20;0.68;;;20.70;99.90;;;;;;8420741;28;20145;-83
2022/10/15 14:41:06;;;;;;;2.90;0.77;;;20.60;99.90;;;;;;8417045;28;20069;-83
2022/10/15 14:45:16;;;;;;;;;;;20.50;99.90;;;;;;8417613;28;20043;-84
2022/10/15 14:49:22;;;;;;;2.60;0.93;;;19.90;99.90;;;;;;8416660;28;19908;-82
2022/10/15 14:53:29;;;;;;;2.88;0.90;;;19.30;99.90;;;;;;8397068;28;20474;-84
2022/10/15 14:57:35;;;;;;;6.25;0.85;;;18.70;99.90;;;;;;8387459;28;20021;-83
2022/10/15 15:01:36;;;;;;;3.80;0.88;;;18.40;99.90;;;;;;8393820;28;20021;-84
2022/10/15 15:05:45;;;;;;;1.55;0.80;;;18.10;99.90;;;;;;8385697;28;20028;-84
2022/10/15 15:09:47;;;;;;;2.00;1.33;;;17.90;99.90;;;;;;8389294;28;20519;-84
2022/10/15 15:13:48;;;;;;;5.13;0.95;;;17.80;99.90;;;;;;8388581;28;20032;-84
2022/10/15 15:17:50;;;;;;;3.17;1.60;;;17.70;99.90;;;;;;8397400;28;20958;-83
2022/10/15 15:21:50;;;;;;;3.42;1.20;;;17.60;99.90;;;;;;8394523;28;20020;-84
2022/10/15 15:25:52;;;;;;;1.90;1.00;;;17.60;99.90;;;;;;8401179;28;20027;-83
2022/10/15 15:29:53;;;;;;;6.10;1.60;;;17.50;99.90;;;;;;8395223;28;20032;-83
2022/10/15 15:33:53;;;;;;;2.30;1.60;;;17.50;99.90;;;;;;8390414;28;20032;-84
2022/10/15 15:37:54;;;;;;;2.67;1.27;;;17.60;99.90;;;;;;8391185;28;20163;-84
2022/10/15 15:41:54;;;;;;;3.35;1.17;;;17.50;99.90;;;;;;8382690;28;20035;-84
2022/10/15 15:45:55;;;;;;;1.95;1.10;;;17.10;99.90;;;;;;8389971;28;20492;-84
2022/10/15 15:49:56;;;;;;;1.65;0.90;;;16.80;99.90;;;;;;8391255;28;20039;-84
2022/10/15 15:53:57;;;;;;;5.30;1.05;;;16.60;99.90;;;;;;8392715;28;20029;-84
2022/10/15 15:57:57;;;;;;;2.97;1.10;;;16.60;99.90;;;;;;8394900;28;20029;-84
2022/10/15 16:01:58;;;;;;;5.78;1.10;;;16.50;99.90;;;;;;8388861;28;20519;-84
2022/10/15 16:05:58;;;;;;;4.00;1.45;;;16.50;99.90;;;;;;8393126;28;20024;-84
2022/10/15 16:09:59;;;;;;;1.15;1.00;;;16.70;99.90;;;;;;8386614;28;20051;-84
2022/10/15 16:14:00;;;;;;;2.90;1.15;;;16.60;99.90;;;;;;8392304;28;20025;-84
2022/10/15 16:18:00;;;;;;;1.40;1.20;;;16.50;99.90;;;;;;8380614;28;20622;-84
2022/10/15 16:22:01;;;;;;;2.70;1.40;;;16.50;99.90;;;;;;8388045;28;20060;-84
2022/10/15 16:26:02;;;;;;;4.90;1.10;;;16.50;99.90;;;;;;8377223;28;20029;-84
2022/10/15 16:30:03;;;;;;;2.63;2.00;;;16.40;99.90;;;;;;8377290;28;20082;-84
2022/10/15 16:34:04;;;;;;;5.18;1.15;;;16.20;99.90;;;;;;8381999;28;20025;-85
2022/10/15 16:38:05;;;;;;;2.75;1.23;;;16.00;99.90;;;;;;8387399;28;20029;-84
2022/10/15 16:42:07;;;;;;;2.08;1.50;;;15.90;99.90;;;;;;8388857;28;20037;-84
2022/10/15 16:46:11;;;;;;;2.55;1.27;;;15.70;99.90;;;;;;8395357;28;20027;-84
2022/10/15 16:50:12;;;;;;;1.35;1.23;;;15.80;99.90;;;;;;8390353;28;20021;-84
2022/10/15 16:54:14;;;;;;;2.70;1.30;;;15.60;99.90;;;;;;8394130;28;20032;-84
2022/10/15 16:58:17;;;;;;;2.42;1.58;;;15.40;99.90;;;;;;8397014;28;20054;-84
2022/10/15 17:02:18;;;;;;;3.55;2.15;;;15.10;99.90;;;;;;8389969;28;20423;-82
2022/10/15 17:06:24;;;;;;;7.70;6.38;;;15.00;99.90;;;;;;8395526;28;20024;-80
2022/10/15 17:10:25;;;;;;;3.70;1.85;;;14.90;99.90;;;;;;8401041;28;20078;-81
2022/10/15 17:14:25;;;;;;;10.63;7.07;;;15.00;99.90;;;;;;8393538;28;20025;-81
2022/10/15 17:18:26;;;;;;;10.27;7.30;;;15.00;99.90;;;;;;8392426;28;20156;-82
2022/10/15 17:22:26;;;;;;;2.40;2.20;;;15.00;99.90;;;;;;8400998;28;20035;-80
2022/10/15 17:26:34;;;;;;;2.58;1.70;;;15.00;99.90;;;;;;8391910;28;20024;-81
2022/10/15 17:30:36;;;;;;;3.53;1.30;;;14.80;99.90;;;;;;8389623;28;20040;-80
2022/10/15 17:34:36;;;;;;;3.35;1.60;;;14.60;99.90;;;;;;8385749;28;20114;-82
2022/10/15 17:38:38;;;;;;;7.50;1.75;;;14.40;99.90;;;;;;8399930;28;20037;-82
2022/10/15 17:42:41;;;;;;;2.20;1.17;;;14.30;99.90;;;;;;8373202;28;20412;-82
2022/10/15 17:46:42;;;;;;;1.63;1.40;;;14.30;99.90;;;;;;8386556;28;20020;-81
2022/10/15 17:50:43;;;;;;;1.85;1.38;;;14.20;99.90;;;;;;8388091;28;20555;-81
2022/10/15 17:54:44;;;;;;;1.77;1.40;;;14.20;99.90;;;;;;8384911;28;20027;-81
2022/10/15 17:58:46;;;;;;;1.80;1.63;;;14.20;99.90;;;;;;8378528;28;20033;-81
2022/10/15 18:02:50;;;;;;;2.75;1.67;;;14.30;99.90;;;;;;8395293;28;20053;-81
2022/10/15 18:06:51;;;;;;;3.05;1.48;;;14.30;99.90;;;;;;8394940;28;20033;-81
2022/10/15 18:10:52;;;;;;;6.10;1.40;;;14.20;99.90;;;;;;8387198;28;20420;-81
2022/10/15 18:14:52;;;;;;;3.58;1.60;;;14.20;99.90;;;;;;8389155;28;20449;-82
2022/10/15 18:18:53;;;;;;;2.25;2.05;;;14.10;99.90;;;;;;8386935;28;20033;-82
2022/10/15 18:22:54;;;;;;;3.80;2.38;;;14.00;99.90;;;;;;8382471;28;20035;-81
2022/10/15 18:26:54;;;;;;;5.32;2.30;;;13.70;99.90;;;;;;8388835;28;20512;-81
2022/10/15 18:30:55;;;;;;;4.00;1.77;;;13.90;99.90;;;;;;8390278;28;20040;-82
2022/10/15 18:34:55;;;;;;;4.22;1.80;;;14.10;99.90;;;;;;8402674;28;20028;-81
2022/10/15 18:38:56;;;;;;;4.25;2.00;;;14.20;99.90;;;;;;8386032;28;20040;-81
2022/10/15 18:42:57;;;;;;;2.97;2.10;;;14.50;99.90;;;;;;8390566;28;20029;-81
2022/10/15 18:46:57;;;;;;;5.47;3.20;;;14.50;99.90;;;;;;8396610;28;20539;-81
2022/10/15 18:51:00;;;;;;;4.28;2.80;;;14.60;99.90;;;;;;8390597;28;20041;-81
2022/10/15 18:55:01;;;;;;;5.10;2.72;;;14.70;99.90;;;;;;8392913;28;20557;-80
2022/10/15 18:59:02;;;;;;;2.60;2.10;;;14.70;99.90;;;;;;8389829;28;20070;-81
2022/10/15 19:03:03;;;;;;;2.40;1.70;;;14.50;99.90;;;;;;8392651;28;20032;-81
2022/10/15 19:07:03;;;;;;;2.15;1.50;;;14.40;99.90;;;;;;8388966;28;20027;-81
2022/10/15 19:11:05;;;;;;;5.55;1.75;;;14.60;99.90;;;;;;8394605;28;20032;-82
2022/10/15 19:15:06;;;;;;;2.38;1.20;;;14.60;99.90;;;;;;8393337;28;20043;-82
2022/10/15 19:19:07;;;;;;;1.45;1.30;;;14.60;99.90;;;;;;8382046;28;20020;-81
2022/10/15 19:23:08;;;;;;;1.90;1.58;;;14.50;99.90;;;;;;8390130;28;20044;-81
2022/10/15 19:27:08;;;;;;;6.07;1.58;;;14.40;99.90;;;;;;8390858;28;20662;-82
2022/10/15 19:31:17;;;;;;;3.58;1.70;;;14.50;99.90;;;;;;8387149;28;20056;-81
2022/10/15 19:35:18;;;;;;;3.78;1.60;;;14.40;99.90;;;;;;8385226;28;20025;-82
2022/10/15 19:39:20;;;;;;;4.25;1.88;;;14.30;99.90;;;;;;8386047;28;20032;-82
2022/10/15 19:43:22;;;;;;;4.40;1.67;;;14.20;99.90;;;;;;8389655;28;20024;-82
2022/10/15 19:47:23;;;;;;;4.10;1.83;;;14.00;99.90;;;;;;8396009;28;20029;-82
2022/10/15 19:51:23;;;;;;;3.53;1.60;;;13.90;99.90;;;;;;8398913;28;20113;-81
2022/10/15 19:55:24;;;;;;;3.90;1.77;;;13.70;99.90;;;;;;8396030;28;20034;-81
2022/10/15 19:59:24;;;;;;;2.85;2.15;;;13.70;99.90;;;;;;8394930;28;20518;-82
2022/10/15 20:03:27;;;;;;;4.10;1.88;;;13.60;99.90;;;;;;8396738;28;20021;-81
2022/10/15 20:07:28;;;;;;;5.68;2.97;;;13.40;99.90;;;;;;8402993;28;20025;-80
2022/10/15 20:11:29;;;;;;;9.93;4.05;;;13.40;99.90;;;;;;8397642;28;20039;-81
2022/10/15 20:15:29;;;;;;;6.97;3.80;;;13.40;99.90;;;;;;8394122;28;20025;-81
2022/10/15 20:19:30;;;;;;;7.55;2.50;;;13.60;99.90;;;;;;8389781;28;20112;-81
2022/10/15 20:23:31;;;;;;;4.22;2.35;;;13.40;99.90;;;;;;8390495;28;20051;-81
2022/10/15 20:27:32;;;;;;;5.50;2.88;;;13.20;99.90;;;;;;8395306;28;20031;-81
2022/10/15 20:31:34;;;;;;;3.25;2.30;;;13.00;99.90;;;;;;8390172;28;20029;-81
2022/10/15 20:35:36;;;;;;;3.90;2.50;;;12.90;99.90;;;;;;8383403;28;20013;-81
2022/10/15 20:39:36;;;;;;;6.57;2.33;;;12.80;99.90;;;;;;8394147;28;20028;-81
2022/10/15 20:43:37;;;;;;;6.15;2.30;;;12.70;99.90;;;;;;8404651;28;20052;-81
2022/10/15 20:47:42;;;;;;;9.32;2.38;;;12.60;99.90;;;;;;8396873;28;20693;-81
2022/10/15 20:51:44;;;;;;;7.03;2.35;;;12.50;99.90;;;;;;8388990;28;20028;-79
2022/10/15 20:55:44;;;;;;;4.38;2.72;;;12.50;99.90;;;;;;8389762;28;20112;-79
2022/10/15 20:59:45;;;;;;;8.88;2.88;;;12.50;99.90;;;;;;8389656;28;20032;-81
2022/10/15 21:03:45;;;;;;;2.80;2.30;;;12.40;99.90;;;;;;8386069;28;20029;-81
2022/10/15 21:07:46;;;;;;;5.72;2.95;;;12.30;99.90;;;;;;8390495;28;20021;-81
2022/10/15 21:11:46;;;;;;;5.95;3.90;;;12.20;99.90;;;;;;8387761;28;20484;-81
2022/10/15 21:15:47;;;;;;;6.95;3.90;;;12.10;99.90;;;;;;8387574;28;20078;-79